createdAt,value
2017-03-04T00:06:39.403Z,97.4
2017-03-04T00:16:54.106Z,96.6
2017-03-04T00:27:07.640Z,96.1
2017-03-04T00:37:21.924Z,95.8
2017-03-04T00:47:36.633Z,95.9
2017-03-04T00:57:51.150Z,96.8
2017-03-04T01:08:05.315Z,96.9
2017-03-04T01:18:19.365Z,96.9
2017-03-04T01:28:33.513Z,97.1
2017-03-04T01:38:47.669Z,98.1
2017-03-04T01:49:02.079Z,99.3
2017-03-04T01:59:16.619Z,99.8
2017-03-04T02:09:31.222Z,100
2017-03-04T02:19:45.889Z,100
2017-03-04T02:29:59.197Z,100
2017-03-04T02:40:13.859Z,100
2017-03-04T02:50:26.864Z,100
2017-03-04T03:00:40.898Z,100
2017-03-04T03:10:54.613Z,100
2017-03-04T03:21:09.072Z,99.7
2017-03-04T03:31:23.360Z,99.2
2017-03-04T03:41:36.438Z,98.6
2017-03-04T03:51:50.697Z,98.6
2017-03-04T04:02:05.743Z,98.8
2017-03-04T04:12:18.934Z,98.9
2017-03-04T04:22:33.369Z,98.8
2017-03-04T04:32:47.482Z,100
2017-03-04T04:43:01.801Z,99.9
2017-03-04T04:53:15.248Z,100
2017-03-04T05:03:28.929Z,100
2017-03-04T05:13:42.745Z,100
2017-03-04T05:23:56.780Z,100
2017-03-04T05:34:09.870Z,100
2017-03-04T05:44:24.651Z,100
2017-03-04T05:54:38.019Z,100
2017-03-04T06:04:52.090Z,100
2017-03-04T06:15:06.191Z,100
2017-03-04T06:25:19.951Z,100
2017-03-04T06:35:35.009Z,100
2017-03-04T06:45:48.747Z,100
2017-03-04T06:56:02.888Z,100
2017-03-04T07:06:17.663Z,100
2017-03-04T07:16:31.247Z,100
2017-03-04T07:26:45.403Z,100
2017-03-04T07:36:58.909Z,98.7
2017-03-04T07:47:14.011Z,98.3
2017-03-04T07:57:29.020Z,98.5
2017-03-04T08:07:42.449Z,97.7
2017-03-04T08:17:56.016Z,96.4
2017-03-04T08:28:10.700Z,94.8
2017-03-04T08:38:24.075Z,94.3
2017-03-04T08:48:38.091Z,93
2017-03-04T08:58:51.928Z,92.8
2017-03-04T09:09:06.365Z,91.8
2017-03-04T09:19:19.750Z,91.3
2017-03-04T09:29:33.291Z,90.4
2017-03-04T09:39:47.304Z,90.2
2017-03-04T09:50:00.219Z,89.3
2017-03-04T10:00:14.120Z,88.5
2017-03-04T10:10:27.478Z,88
2017-03-04T10:20:41.441Z,87.2
2017-03-04T10:30:55.969Z,86.2
2017-03-04T10:41:10.686Z,85.3
2017-03-04T10:51:25.142Z,84.6
2017-03-04T11:01:39.999Z,84
2017-03-04T11:11:55.246Z,83.5
2017-03-04T11:22:09.447Z,83.3
2017-03-04T11:32:22.948Z,83.3
2017-03-04T11:42:36.368Z,83.4
2017-03-04T11:52:49.725Z,82.9
2017-03-04T12:03:03.005Z,81.5
2017-03-04T12:13:16.406Z,81
2017-03-04T12:23:30.283Z,80
2017-03-04T12:33:43.873Z,78
2017-03-04T12:43:58.431Z,77.9
2017-03-04T12:54:11.872Z,76.7
2017-03-04T13:04:26.972Z,76.7
2017-03-04T13:14:40.248Z,76.8
2017-03-04T13:24:54.556Z,76.9
2017-03-04T13:35:08.255Z,76.8
2017-03-04T13:45:22.915Z,77
2017-03-04T13:55:38.023Z,76.5
2017-03-04T14:05:52.238Z,76
2017-03-04T14:16:07.637Z,76.5
2017-03-04T14:26:21.983Z,76.5
2017-03-04T14:36:35.600Z,76.8
2017-03-04T14:46:50.767Z,76.5
2017-03-04T14:57:04.325Z,76.8
2017-03-04T15:07:18.360Z,76.8
2017-03-04T15:17:33.167Z,77.2
2017-03-04T15:27:46.600Z,77.4
2017-03-04T15:38:01.242Z,78.1
2017-03-04T15:48:15.578Z,77.7
2017-03-04T15:58:28.922Z,78.8
2017-03-04T16:08:42.939Z,80.1
2017-03-04T16:18:56.381Z,81.3
2017-03-04T16:29:10.154Z,82.5
2017-03-04T16:39:24.695Z,83.2
2017-03-04T16:49:38.905Z,83.7
2017-03-04T16:59:52.701Z,85
2017-03-04T17:10:07.805Z,86.8
2017-03-04T17:20:21.468Z,88.4
2017-03-04T17:30:36.548Z,89.3
2017-03-04T17:40:50.852Z,90.4
2017-03-04T17:51:04.435Z,90.9
2017-03-04T18:01:17.977Z,92.4
2017-03-04T18:11:31.410Z,92.4
2017-03-04T18:21:44.888Z,93.3
2017-03-04T18:32:00.134Z,94.3
2017-03-04T18:42:14.571Z,94.2
2017-03-04T18:52:28.621Z,94.6
2017-03-04T19:02:43.691Z,95.5
2017-03-04T19:12:58.250Z,97.1
2017-03-04T19:23:11.484Z,98.3
2017-03-04T19:33:25.371Z,98.1
2017-03-04T19:43:39.477Z,96.8
2017-03-04T19:53:53.687Z,96.6
2017-03-04T20:04:07.887Z,95.4
2017-03-04T20:14:21.190Z,96
2017-03-04T20:24:36.009Z,96.7
2017-03-04T20:34:50.128Z,96.9
2017-03-04T20:45:03.230Z,100
2017-03-04T20:55:18.111Z,100
2017-03-04T21:05:32.730Z,100
2017-03-04T21:15:46.255Z,100
2017-03-04T21:25:59.861Z,100
2017-03-04T21:36:13.554Z,100
2017-03-04T21:46:27.888Z,100
2017-03-04T21:56:41.879Z,100
2017-03-04T22:06:56.375Z,100
2017-03-04T22:17:10.376Z,100
2017-03-04T22:27:23.625Z,100
2017-03-04T22:37:37.448Z,100
2017-03-04T22:47:51.845Z,100
2017-03-04T22:58:05.256Z,100
2017-03-04T23:08:19.356Z,100
2017-03-04T23:18:33.383Z,100
2017-03-04T23:28:48.080Z,100
2017-03-04T23:39:02.155Z,100
2017-03-04T23:49:16.445Z,100
2017-03-04T23:59:31.502Z,100
